Darlington, South Carolina
Current Conditions -  °F | °C
As of 2:55 PM on Saturday 27 Dec 2014 (Local Time) from KUDG Reporting Station
Clear Clear  
Wind Chill: 63°   Ceiling: Unl
Heat Index: 63°   Visibility: 10mi
Dew Point: 39°   Wind: 5mph
Humidity: 42%   Direction: 200°SSW
Pressure: 30.23"   Gusts: NA
Location:  34.3°N, 79.87°W
Report Text: KUDG 271955Z AUTO 20004KT 10SM CLR 17/04 A3023 RMK AO1
Loading
Personal Weather Stations






























Interactive Weather Map New forecast layout! Learn more

10-Day Weather Forecast

Advertisements
Track Severe Weather on mobile